createdAt,value
2022-08-16T00:00:39.311Z,68.56
2022-08-16T00:03:13.684Z,68.73
2022-08-16T00:05:48.409Z,68.89
2022-08-16T00:08:11.477Z,68.99
2022-08-16T00:10:41.351Z,69.23
2022-08-16T00:13:10.215Z,69.19
2022-08-16T00:15:51.676Z,69.04
2022-08-16T00:18:17.937Z,68.97
2022-08-16T00:20:48.450Z,68.88
2022-08-16T00:23:18.096Z,68.87
2022-08-16T00:26:35.815Z,68.73
2022-08-16T00:28:17.112Z,68.60
2022-08-16T00:30:44.957Z,68.53
2022-08-16T00:33:12.681Z,68.55
2022-08-16T00:35:40.368Z,68.66
2022-08-16T00:38:40.855Z,68.81
2022-08-16T00:40:43.654Z,68.88
2022-08-16T00:43:43.195Z,69.00
2022-08-16T00:46:32.975Z,69.16
2022-08-16T00:48:51.487Z,69.19
2022-08-16T00:51:23.327Z,69.30
2022-08-16T00:53:53.223Z,69.40
2022-08-16T00:56:58.035Z,69.46
2022-08-16T00:58:56.543Z,69.59
2022-08-16T01:01:27.342Z,69.77
2022-08-16T01:03:56.288Z,69.97
2022-08-16T01:06:39.541Z,70.06
2022-08-16T01:08:56.999Z,70.12
2022-08-16T01:11:27.851Z,70.21
2022-08-16T01:14:20.192Z,70.15
2022-08-16T01:16:48.937Z,70.08
2022-08-16T01:19:37.606Z,69.84
2022-08-16T01:22:50.256Z,69.71
2022-08-16T01:25:09.752Z,69.42
2022-08-16T01:27:45.798Z,69.26
2022-08-16T01:30:20.901Z,69.09
2022-08-16T01:32:56.394Z,69.04
2022-08-16T01:35:52.617Z,68.89
2022-08-16T01:38:29.131Z,68.86
2022-08-16T01:41:19.166Z,68.79
2022-08-16T01:43:53.560Z,68.83
2022-08-16T01:46:39.537Z,68.91
2022-08-16T01:49:10.954Z,69.00
2022-08-16T01:51:44.778Z,69.09
2022-08-16T01:54:15.454Z,69.19
2022-08-16T01:56:46.983Z,69.34
2022-08-16T01:59:19.317Z,69.55
2022-08-16T02:01:59.405Z,69.79
2022-08-16T02:04:49.474Z,69.74
2022-08-16T02:06:57.765Z,70.13
2022-08-16T02:09:28.005Z,70.16
2022-08-16T02:11:59.610Z,70.17
2022-08-16T02:14:30.654Z,70.24
2022-08-16T02:17:02.845Z,70.18
2022-08-16T02:19:59.920Z,70.05
2022-08-16T02:22:34.217Z,69.94
2022-08-16T02:24:41.004Z,69.87
2022-08-16T02:27:10.398Z,69.89
2022-08-16T02:29:41.266Z,69.83
2022-08-16T02:32:50.148Z,69.81
2022-08-16T02:34:45.260Z,69.88
2022-08-16T02:37:13.291Z,69.85
2022-08-16T02:39:42.959Z,69.96
2022-08-16T02:42:13.804Z,70.01
2022-08-16T02:44:43.353Z,70.11
2022-08-16T02:47:11.655Z,70.20
2022-08-16T02:50:52.610Z,70.28
2022-08-16T02:52:24.498Z,70.36
2022-08-16T02:54:42.701Z,70.47
2022-08-16T02:57:11.866Z,70.61
2022-08-16T02:59:41.670Z,70.75
2022-08-16T03:02:10.108Z,70.86
2022-08-16T03:04:50.203Z,70.95
2022-08-16T03:07:10.093Z,71.05
2022-08-16T03:09:40.457Z,71.03
2022-08-16T03:12:10.306Z,70.98
2022-08-16T03:14:40.133Z,70.94
2022-08-16T03:17:10.018Z,70.73
2022-08-16T03:19:59.579Z,70.64
2022-08-16T03:22:08.776Z,70.49
2022-08-16T03:24:37.701Z,70.49
2022-08-16T03:27:05.611Z,70.43
2022-08-16T03:29:35.324Z,70.32
2022-08-16T03:32:04.990Z,70.24
2022-08-16T03:34:33.134Z,70.28
2022-08-16T03:37:01.563Z,70.31
2022-08-16T03:39:30.016Z,70.36
2022-08-16T03:41:59.623Z,70.35
2022-08-16T03:44:44.096Z,70.39
2022-08-16T03:46:58.729Z,70.41
2022-08-16T03:49:37.053Z,70.43
2022-08-16T03:51:58.316Z,70.47
2022-08-16T03:54:28.796Z,70.51
2022-08-16T03:56:58.692Z,70.64
2022-08-16T03:59:30.096Z,70.77
2022-08-16T04:02:01.742Z,70.80
2022-08-16T04:04:33.391Z,71.08
2022-08-16T04:07:07.171Z,71.05
2022-08-16T04:09:38.206Z,71.01
2022-08-16T04:12:53.274Z,71.06
2022-08-16T04:14:46.870Z,70.86
2022-08-16T04:17:14.585Z,70.65
2022-08-16T04:19:46.968Z,70.45
2022-08-16T04:22:17.422Z,70.24
2022-08-16T04:24:54.455Z,70.24
2022-08-16T04:27:16.618Z,69.87
2022-08-16T04:29:46.537Z,69.79
2022-08-16T04:32:15.251Z,69.59
2022-08-16T04:34:43.653Z,69.46
2022-08-16T04:37:13.159Z,69.46
2022-08-16T04:39:46.465Z,69.51
2022-08-16T04:42:12.140Z,69.46
2022-08-16T04:44:54.694Z,69.58
2022-08-16T04:47:21.852Z,69.42
2022-08-16T04:49:46.084Z,69.42
2022-08-16T04:52:33.844Z,69.38
2022-08-16T04:54:40.265Z,69.34
2022-08-16T04:57:09.777Z,69.43
2022-08-16T04:59:39.898Z,69.56
2022-08-16T05:02:41.003Z,69.76
2022-08-16T05:04:39.147Z,69.60
2022-08-16T05:07:12.103Z,69.65
2022-08-16T05:09:39.793Z,69.66
2022-08-16T05:12:11.129Z,69.46
2022-08-16T05:14:45.358Z,69.23
2022-08-16T05:17:09.255Z,69.44
2022-08-16T05:19:39.333Z,69.28
2022-08-16T05:22:18.141Z,69.14
2022-08-16T05:24:41.143Z,68.94
2022-08-16T05:27:12.046Z,68.75
2022-08-16T05:29:59.244Z,68.34
2022-08-16T05:32:31.928Z,68.34
2022-08-16T05:34:41.920Z,68.57
2022-08-16T05:37:11.988Z,68.77
2022-08-16T05:39:40.741Z,68.89
2022-08-16T05:42:09.091Z,68.88
2022-08-16T05:44:38.166Z,68.93
2022-08-16T05:47:09.237Z,68.83
2022-08-16T05:49:40.136Z,68.91
2022-08-16T05:52:13.708Z,68.89
2022-08-16T05:54:47.302Z,68.93
2022-08-16T05:57:16.799Z,69.09
2022-08-16T05:59:46.974Z,69.45
2022-08-16T06:02:16.617Z,69.61
2022-08-16T06:04:45.849Z,69.63
2022-08-16T06:07:26.648Z,69.69
2022-08-16T06:09:48.965Z,69.92
2022-08-16T06:12:27.373Z,69.78
2022-08-16T06:14:49.312Z,69.78
2022-08-16T06:17:21.611Z,69.20
2022-08-16T06:19:49.923Z,69.06
2022-08-16T06:22:19.496Z,68.91
2022-08-16T06:24:54.815Z,68.63
2022-08-16T06:27:20.758Z,68.49
2022-08-16T06:29:49.977Z,68.24
2022-08-16T06:32:27.127Z,68.03
2022-08-16T06:34:55.314Z,68.03
2022-08-16T06:37:20.148Z,67.56
2022-08-16T06:39:50.260Z,67.79
2022-08-16T06:42:49.233Z,67.87
2022-08-16T06:45:04.513Z,67.76
2022-08-16T06:47:53.610Z,67.37
2022-08-16T06:50:07.872Z,67.26
2022-08-16T06:53:00.662Z,67.08
2022-08-16T06:55:15.525Z,67.02
2022-08-16T06:57:45.369Z,67.09
2022-08-16T07:00:24.370Z,67.14
2022-08-16T07:02:51.577Z,67.61
2022-08-16T07:05:17.402Z,67.54
2022-08-16T07:07:50.756Z,68.31
2022-08-16T07:10:20.447Z,67.81
2022-08-16T07:13:04.105Z,67.97
2022-08-16T07:15:22.370Z,67.90
2022-08-16T07:17:53.027Z,67.66
2022-08-16T07:20:34.945Z,67.28
2022-08-16T07:22:58.795Z,66.85
2022-08-16T07:25:26.916Z,66.82
2022-08-16T07:27:55.011Z,66.82
2022-08-16T07:30:38.972Z,67.21
2022-08-16T07:32:55.372Z,67.10
2022-08-16T07:35:25.019Z,67.20
2022-08-16T07:37:52.806Z,67.30
2022-08-16T07:40:57.941Z,67.35
2022-08-16T07:42:58.623Z,67.41
2022-08-16T07:45:26.422Z,67.26
2022-08-16T07:47:56.927Z,67.27
2022-08-16T07:50:57.383Z,67.16
2022-08-16T07:52:57.469Z,67.38
2022-08-16T07:55:27.344Z,67.66
2022-08-16T07:58:00.958Z,67.54
2022-08-16T08:00:26.497Z,67.73
2022-08-16T08:02:55.511Z,67.40
2022-08-16T08:05:37.004Z,67.52
2022-08-16T08:07:57.609Z,67.49
2022-08-16T08:10:29.486Z,66.98
2022-08-16T08:12:58.442Z,66.79
2022-08-16T08:15:28.703Z,66.77
2022-08-16T08:17:56.787Z,66.88
2022-08-16T08:20:28.796Z,66.62
2022-08-16T08:23:00.942Z,66.65
2022-08-16T08:25:54.926Z,66.79
2022-08-16T08:28:03.166Z,67.35
2022-08-16T08:30:51.103Z,67.12
2022-08-16T08:33:03.330Z,67.25
2022-08-16T08:35:36.452Z,67.05
2022-08-16T08:38:08.673Z,67.09
2022-08-16T08:40:38.236Z,66.92
2022-08-16T08:43:12.439Z,66.87
2022-08-16T08:45:53.633Z,66.74
2022-08-16T08:48:08.383Z,66.63
2022-08-16T08:50:38.150Z,65.68
2022-08-16T08:53:07.656Z,65.71
2022-08-16T08:55:36.884Z,65.12
2022-08-16T08:58:04.805Z,65.05
2022-08-16T09:00:51.358Z,64.08
2022-08-16T09:03:07.856Z,64.12
2022-08-16T09:05:38.047Z,63.96
2022-08-16T09:08:10.928Z,63.36
2022-08-16T09:11:02.260Z,62.51
2022-08-16T09:13:28.040Z,63.14
2022-08-16T09:15:57.417Z,62.69
2022-08-16T09:18:35.371Z,62.49
2022-08-16T09:20:59.962Z,61.98
2022-08-16T09:23:30.759Z,61.58
2022-08-16T09:25:59.026Z,61.12
2022-08-16T09:29:14.073Z,60.94
2022-08-16T09:30:59.194Z,61.03
2022-08-16T09:33:26.888Z,61.88
2022-08-16T09:35:56.485Z,60.36
2022-08-16T09:38:32.341Z,58.34
2022-08-16T09:40:56.848Z,59.45
2022-08-16T09:43:58.648Z,60.34
2022-08-16T09:45:55.815Z,60.63
2022-08-16T09:48:37.114Z,60.04
2022-08-16T09:50:53.814Z,59.08
2022-08-16T09:53:23.509Z,59.88
2022-08-16T09:55:56.803Z,60.07
2022-08-16T09:58:39.077Z,58.33
2022-08-16T10:00:56.893Z,58.84
2022-08-16T10:03:24.725Z,56.87
2022-08-16T10:05:52.387Z,53.15
2022-08-16T10:08:26.000Z,53.19
2022-08-16T10:11:09.420Z,54.38
2022-08-16T10:13:39.031Z,54.17
2022-08-16T10:18:56.147Z,52.66
2022-08-16T10:21:08.987Z,52.22
2022-08-16T10:23:36.652Z,53.11
2022-08-16T10:27:16.891Z,53.05
2022-08-16T10:28:39.472Z,53.24
2022-08-16T10:31:11.837Z,55.34
2022-08-16T10:33:40.385Z,56.18
2022-08-16T10:36:09.252Z,56.97
2022-08-16T10:38:42.038Z,59.59
2022-08-16T10:41:11.407Z,60.92
2022-08-16T10:43:42.838Z,62.34
2022-08-16T10:46:39.636Z,61.65
2022-08-16T10:48:47.009Z,61.93
2022-08-16T10:51:15.608Z,62.19
2022-08-16T10:53:44.570Z,65.21
2022-08-16T10:56:51.512Z,66.56
2022-08-16T10:58:43.117Z,66.83
2022-08-16T11:01:43.460Z,66.88
2022-08-16T11:03:45.696Z,67.44
2022-08-16T11:06:13.575Z,68.47
2022-08-16T11:08:45.401Z,70.91
2022-08-16T11:11:19.140Z,70.77
2022-08-16T11:14:11.097Z,70.66
2022-08-16T11:19:03.287Z,70.96
2022-08-16T11:21:28.749Z,70.97
2022-08-16T11:23:58.358Z,71.06
2022-08-16T11:26:23.985Z,71.87
2022-08-16T11:31:17.974Z,73.22
2022-08-16T11:33:53.210Z,73.38
2022-08-16T11:36:28.041Z,73.67
2022-08-16T11:38:51.287Z,72.48
2022-08-16T11:41:14.325Z,71.89
2022-08-16T11:43:42.208Z,71.24
2022-08-16T11:46:43.138Z,71.88
2022-08-16T11:48:46.623Z,71.73
2022-08-16T11:51:14.357Z,71.81
2022-08-16T11:53:42.146Z,72.60
2022-08-16T11:56:09.639Z,73.06
2022-08-16T11:58:39.137Z,72.64
2022-08-16T12:01:07.358Z,72.68
2022-08-16T12:03:37.073Z,72.99
2022-08-16T12:06:10.898Z,72.86
2022-08-16T12:08:43.269Z,73.01
2022-08-16T12:11:13.412Z,72.86
2022-08-16T12:13:42.575Z,72.02
2022-08-16T12:16:11.364Z,71.73
2022-08-16T12:18:40.901Z,71.30
2022-08-16T12:21:09.780Z,69.22
2022-08-16T12:23:38.699Z,68.64
2022-08-16T12:26:10.663Z,66.67
2022-08-16T12:28:36.949Z,67.32
2022-08-16T12:31:06.632Z,66.67
2022-08-16T12:33:42.732Z,65.81
2022-08-16T12:36:04.522Z,64.75
2022-08-16T12:38:38.578Z,63.56
2022-08-16T12:41:03.955Z,62.06
2022-08-16T12:43:33.708Z,61.33
2022-08-16T12:46:02.905Z,63.13
2022-08-16T12:48:52.606Z,63.61
2022-08-16T12:51:24.155Z,64.02
2022-08-16T12:53:55.222Z,64.54
2022-08-16T12:56:27.709Z,64.67
2022-08-16T12:58:57.230Z,64.41
2022-08-16T13:01:31.377Z,63.39
2022-08-16T13:04:11.866Z,63.63
2022-08-16T13:06:33.448Z,63.42
2022-08-16T13:09:03.252Z,62.79
2022-08-16T13:11:41.441Z,62.00
2022-08-16T13:14:09.999Z,60.48
2022-08-16T13:19:08.253Z,59.75
2022-08-16T13:21:37.022Z,59.74
2022-08-16T13:24:04.783Z,58.78
2022-08-16T13:26:33.206Z,59.51
2022-08-16T13:29:00.866Z,59.76
2022-08-16T13:31:29.368Z,59.35
2022-08-16T13:33:58.941Z,60.08
2022-08-16T13:36:48.041Z,60.44
2022-08-16T13:38:57.109Z,60.80
2022-08-16T13:41:26.480Z,60.59
2022-08-16T13:43:57.863Z,61.30
2022-08-16T13:46:26.304Z,61.75
2022-08-16T13:48:54.398Z,61.29
2022-08-16T13:51:25.053Z,58.96
2022-08-16T13:54:03.006Z,58.72
2022-08-16T13:56:36.036Z,58.26
2022-08-16T13:58:57.140Z,58.53
2022-08-16T14:01:24.982Z,58.31
2022-08-16T14:03:54.684Z,57.91
2022-08-16T14:06:23.131Z,57.47
2022-08-16T14:09:06.408Z,57.22
2022-08-16T14:11:22.242Z,57.75
2022-08-16T14:13:50.110Z,58.25
2022-08-16T14:16:24.442Z,58.02
2022-08-16T14:18:49.490Z,58.04
2022-08-16T14:21:18.247Z,58.58
2022-08-16T14:23:46.638Z,59.24
2022-08-16T14:26:15.241Z,59.72
2022-08-16T14:28:43.677Z,60.59
2022-08-16T14:31:11.303Z,62.21
2022-08-16T14:33:40.034Z,62.08
2022-08-16T14:36:08.538Z,62.13
2022-08-16T14:38:39.300Z,64.06
2022-08-16T14:41:10.200Z,65.30
2022-08-16T14:43:35.375Z,64.25
2022-08-16T14:46:04.244Z,64.03
2022-08-16T14:48:34.189Z,65.06
2022-08-16T14:51:02.385Z,65.62
2022-08-16T14:53:30.630Z,66.55
2022-08-16T14:56:00.367Z,67.26
2022-08-16T14:58:34.871Z,67.76
2022-08-16T15:00:59.312Z,68.59
2022-08-16T15:03:28.128Z,69.37
2022-08-16T15:05:57.637Z,69.68
2022-08-16T15:08:36.644Z,70.17
2022-08-16T15:10:54.764Z,70.43
2022-08-16T15:13:22.600Z,70.55
2022-08-16T15:15:58.809Z,70.67
2022-08-16T15:18:23.281Z,70.92
2022-08-16T15:20:53.960Z,70.94
2022-08-16T15:23:23.527Z,70.78
2022-08-16T15:26:02.982Z,70.71
2022-08-16T15:28:30.808Z,70.89
2022-08-16T15:30:59.417Z,71.18
2022-08-16T15:33:26.700Z,71.24
2022-08-16T15:35:55.535Z,71.10
2022-08-16T15:38:57.918Z,71.41
2022-08-16T15:40:57.741Z,71.69
2022-08-16T15:43:33.705Z,71.73
2022-08-16T15:46:13.106Z,71.46
2022-08-16T15:48:42.891Z,71.59
2022-08-16T15:51:12.454Z,71.44
2022-08-16T15:53:42.031Z,70.89
2022-08-16T15:56:10.266Z,70.84
2022-08-16T15:58:39.774Z,70.82
2022-08-16T16:01:07.813Z,70.58
2022-08-16T16:03:36.226Z,70.37
2022-08-16T16:06:04.701Z,70.17
2022-08-16T16:08:32.803Z,70.18
2022-08-16T16:11:05.838Z,70.24
2022-08-16T16:13:35.498Z,70.65
2022-08-16T16:16:06.781Z,70.75
2022-08-16T16:18:36.146Z,70.96
2022-08-16T16:21:09.225Z,70.95
2022-08-16T16:23:55.170Z,70.99
2022-08-16T16:26:16.164Z,70.99
2022-08-16T16:29:08.103Z,70.87
2022-08-16T16:31:19.167Z,71.20
2022-08-16T16:33:51.701Z,71.42
2022-08-16T16:36:26.869Z,71.53
2022-08-16T16:38:52.149Z,71.55
2022-08-16T16:41:24.460Z,71.68
2022-08-16T16:43:56.025Z,71.97
2022-08-16T16:46:42.049Z,72.38
2022-08-16T16:48:57.535Z,72.68
2022-08-16T16:51:28.129Z,72.91
2022-08-16T16:53:56.661Z,73.14
2022-08-16T16:56:32.210Z,73.12
2022-08-16T16:59:06.712Z,73.03
2022-08-16T17:01:56.826Z,72.91
2022-08-16T17:04:19.528Z,72.80
2022-08-16T17:06:43.175Z,72.71
2022-08-16T17:09:13.601Z,72.63
2022-08-16T17:11:44.598Z,72.49
2022-08-16T17:14:27.543Z,72.44
2022-08-16T17:16:47.742Z,72.75
2022-08-16T17:19:17.377Z,72.81
2022-08-16T17:21:43.643Z,73.05
2022-08-16T17:24:18.397Z,73.11
2022-08-16T17:26:41.104Z,72.94
2022-08-16T17:29:11.965Z,73.35
2022-08-16T17:31:40.902Z,73.81
2022-08-16T17:34:30.094Z,74.07
2022-08-16T17:36:45.286Z,74.19
2022-08-16T17:39:11.603Z,73.86
2022-08-16T17:41:41.548Z,73.63
2022-08-16T17:44:09.937Z,73.60
2022-08-16T17:46:51.006Z,73.70
2022-08-16T17:49:07.167Z,73.88
2022-08-16T17:51:36.005Z,77.25
2022-08-16T17:54:03.762Z,78.84
2022-08-16T17:56:32.132Z,78.18
2022-08-16T17:59:00.737Z,76.69
2022-08-16T18:01:29.022Z,74.71
2022-08-16T18:04:07.947Z,71.72
2022-08-16T18:06:26.576Z,72.36
2022-08-16T18:09:01.687Z,73.31
2022-08-16T18:11:25.979Z,73.68
2022-08-16T18:13:55.012Z,73.48
2022-08-16T18:16:23.317Z,73.29
2022-08-16T18:18:50.997Z,73.41
2022-08-16T18:21:37.209Z,74.00
2022-08-16T18:24:05.219Z,74.33
2022-08-16T18:26:33.228Z,74.55
2022-08-16T18:29:00.904Z,74.90
2022-08-16T18:31:28.874Z,75.01
2022-08-16T18:33:56.498Z,75.11
2022-08-16T18:36:25.197Z,75.11
2022-08-16T18:38:54.280Z,75.38
2022-08-16T18:41:24.608Z,75.24
2022-08-16T18:44:22.399Z,75.19
2022-08-16T18:46:22.466Z,75.18
2022-08-16T18:48:50.006Z,75.10
2022-08-16T18:51:22.891Z,75.34
2022-08-16T18:53:47.260Z,75.51
2022-08-16T18:56:14.989Z,75.64
2022-08-16T18:58:42.548Z,75.34
2022-08-16T19:01:10.233Z,75.50
2022-08-16T19:03:38.172Z,75.51
2022-08-16T19:06:11.385Z,75.38
2022-08-16T19:08:43.467Z,75.27
2022-08-16T19:11:18.596Z,75.25
2022-08-16T19:13:46.621Z,75.50
2022-08-16T19:16:15.033Z,75.63
2022-08-16T19:18:42.846Z,75.72
2022-08-16T19:21:14.545Z,76.08
2022-08-16T19:23:43.629Z,76.34
2022-08-16T19:26:25.651Z,76.57
2022-08-16T19:28:59.678Z,76.76
2022-08-16T19:31:28.674Z,76.64
2022-08-16T19:33:57.407Z,76.72
2022-08-16T19:36:35.383Z,76.60
2022-08-16T19:39:09.014Z,76.27
2022-08-16T19:41:41.758Z,75.83
2022-08-16T19:44:09.913Z,75.68
2022-08-16T19:46:40.062Z,75.54
2022-08-16T19:49:07.675Z,75.70
2022-08-16T19:51:35.382Z,76.14
2022-08-16T19:54:04.977Z,76.02
2022-08-16T19:56:32.481Z,76.36
2022-08-16T20:01:30.102Z,76.53
2022-08-16T20:03:57.934Z,76.53
2022-08-16T20:06:32.111Z,76.71
2022-08-16T20:08:55.425Z,76.98
2022-08-16T20:11:24.435Z,77.09
2022-08-16T20:13:52.084Z,77.07
2022-08-16T20:16:19.663Z,77.33
2022-08-16T20:18:47.242Z,77.41
2022-08-16T20:21:14.980Z,77.34
2022-08-16T20:23:42.598Z,77.39
2022-08-16T20:26:10.273Z,77.39
2022-08-16T20:28:50.033Z,77.47
2022-08-16T20:31:11.055Z,77.21
2022-08-16T20:33:38.628Z,77.09
2022-08-16T20:36:06.662Z,76.76
2022-08-16T20:38:34.877Z,76.49
2022-08-16T20:41:02.616Z,76.22
2022-08-16T20:43:30.337Z,75.84
2022-08-16T20:45:57.843Z,75.79
2022-08-16T20:48:25.449Z,75.81
2022-08-16T20:50:54.929Z,75.77
2022-08-16T20:53:23.000Z,75.84
2022-08-16T20:55:50.759Z,76.10
2022-08-16T20:58:18.390Z,76.29
2022-08-16T21:00:46.879Z,76.50
2022-08-16T21:03:14.598Z,76.61
2022-08-16T21:05:44.158Z,76.70
2022-08-16T21:08:50.884Z,76.80
2022-08-16T21:10:42.168Z,76.59
2022-08-16T21:13:11.604Z,76.50
2022-08-16T21:15:39.300Z,76.77
2022-08-16T21:18:07.093Z,77.18
2022-08-16T21:20:34.827Z,77.27
2022-08-16T21:23:07.089Z,78.36
2022-08-16T21:25:37.477Z,79.43
2022-08-16T21:28:38.698Z,78.81
2022-08-16T21:30:39.019Z,79.81
2022-08-16T21:33:11.862Z,79.02
2022-08-16T21:35:42.996Z,79.05
2022-08-16T21:38:28.666Z,78.92
2022-08-16T21:40:40.797Z,79.01
2022-08-16T21:43:19.562Z,79.08
2022-08-16T21:45:48.006Z,79.17
2022-08-16T21:48:17.454Z,79.35
2022-08-16T21:50:46.950Z,79.58
2022-08-16T21:53:19.526Z,79.79
2022-08-16T21:55:51.266Z,79.86
2022-08-16T21:58:19.122Z,79.83
2022-08-16T22:00:47.485Z,79.95
2022-08-16T22:03:16.147Z,79.76
2022-08-16T22:06:12.357Z,79.63
2022-08-16T22:08:18.695Z,79.40
2022-08-16T22:11:07.520Z,79.15
2022-08-16T22:13:23.087Z,78.89
2022-08-16T22:15:51.403Z,78.64
2022-08-16T22:18:20.102Z,78.33
2022-08-16T22:20:49.447Z,78.07
2022-08-16T22:23:25.680Z,77.89
2022-08-16T22:25:55.167Z,77.74
2022-08-16T22:28:24.655Z,77.74
2022-08-16T22:30:52.833Z,77.72
2022-08-16T22:33:24.707Z,77.88
2022-08-16T22:36:00.857Z,78.04
2022-08-16T22:38:54.846Z,78.13
2022-08-16T22:40:58.759Z,78.19
2022-08-16T22:43:27.055Z,78.13
2022-08-16T22:45:54.650Z,77.97
2022-08-16T22:48:23.220Z,77.87
2022-08-16T22:50:51.108Z,77.75
2022-08-16T22:53:19.003Z,77.71
2022-08-16T22:55:46.688Z,77.61
2022-08-16T22:58:15.037Z,77.47
2022-08-16T23:00:43.831Z,77.38
2022-08-16T23:03:16.066Z,77.20
2022-08-16T23:05:56.984Z,77.14
2022-08-16T23:08:38.016Z,76.98
2022-08-16T23:10:58.618Z,77.04
2022-08-16T23:13:26.679Z,77.05
2022-08-16T23:16:00.431Z,77.00
2022-08-16T23:18:31.055Z,77.04
2022-08-16T23:21:01.670Z,77.10
2022-08-16T23:23:30.450Z,77.27
2022-08-16T23:25:58.874Z,77.45
2022-08-16T23:28:30.272Z,77.40
2022-08-16T23:30:58.705Z,77.46
2022-08-16T23:33:28.312Z,77.53
2022-08-16T23:35:59.763Z,77.70
2022-08-16T23:38:37.681Z,77.76
2022-08-16T23:41:05.260Z,77.78
2022-08-16T23:43:36.717Z,77.63
2022-08-16T23:46:07.609Z,77.32
2022-08-16T23:50:02.557Z,77.44
2022-08-16T23:51:12.386Z,77.27
2022-08-16T23:53:43.711Z,77.11
2022-08-16T23:56:16.279Z,76.88
2022-08-16T23:58:48.488Z,76.70
